Time;durP1;ratioP1;P1;durP2;ratioP2;P2;SDS_P1;SDS_P2;PMS_P1;PMS_P2;Temp;Humidity;BMP_temperature;BMP_pressure;BME280_temperature;BME280_humidity;BME280_pressure;Samples;Min_cycle;Max_cycle;Signal;HPM_P1;HPM_P2
2021/10/15 00:02:23;;;;;;;6.20;3.67;;;;;;;12.18;100.00;101692.19;5244885;28;20448;-69
2021/10/15 00:04:54;;;;;;;5.95;3.72;;;;;;;12.17;100.00;101692.34;5248505;28;20017;-70
2021/10/15 00:07:26;;;;;;;6.45;3.88;;;;;;;12.11;100.00;101677.03;5248740;28;20724;-69
2021/10/15 00:09:57;;;;;;;8.25;4.03;;;;;;;12.08;100.00;101686.00;5245403;28;20104;-70
2021/10/15 00:12:28;;;;;;;6.60;3.90;;;;;;;12.12;100.00;101689.22;5248665;28;20545;-69
2021/10/15 00:14:59;;;;;;;4.97;3.72;;;;;;;12.10;100.00;101685.88;5248597;28;20021;-70
2021/10/15 00:17:31;;;;;;;8.57;3.90;;;;;;;12.03;100.00;101675.00;5246773;28;20029;-68
2021/10/15 00:20:04;;;;;;;9.93;4.50;;;;;;;12.05;100.00;101674.91;5245077;28;20021;-70
2021/10/15 00:22:35;;;;;;;8.70;4.07;;;;;;;12.04;100.00;101667.97;5243805;28;20030;-69
2021/10/15 00:25:07;;;;;;;9.82;4.43;;;;;;;12.00;100.00;101659.50;5243275;28;20457;-69
2021/10/15 00:27:39;;;;;;;6.70;4.22;;;;;;;12.00;100.00;101661.28;5230563;28;20112;-68
2021/10/15 00:30:10;;;;;;;7.35;4.22;;;;;;;11.99;100.00;101659.63;5233148;28;20467;-69
2021/10/15 00:32:41;;;;;;;7.75;4.72;;;;;;;11.96;100.00;101650.19;5232687;28;20112;-70
2021/10/15 00:35:13;;;;;;;10.52;4.60;;;;;;;11.96;100.00;101657.22;5230863;28;20083;-69
2021/10/15 00:37:47;;;;;;;9.13;4.50;;;;;;;11.95;100.00;101652.94;5230547;28;20025;-69
2021/10/15 00:40:18;;;;;;;7.63;4.05;;;;;;;11.88;100.00;101644.69;5233086;28;20502;-69
2021/10/15 00:42:50;;;;;;;10.57;4.82;;;;;;;11.89;100.00;101641.97;5232540;28;20025;-70
2021/10/15 00:45:21;;;;;;;7.18;4.35;;;;;;;11.90;100.00;101646.25;5233108;28;20056;-69
2021/10/15 00:47:52;;;;;;;7.90;4.90;;;;;;;11.86;100.00;101642.19;5226808;28;21357;-69
2021/10/15 00:50:24;;;;;;;8.20;4.70;;;;;;;11.86;100.00;101631.69;5233344;28;20021;-69
2021/10/15 00:52:55;;;;;;;7.72;4.45;;;;;;;11.82;100.00;101626.75;5232598;28;20025;-69
2021/10/15 00:55:27;;;;;;;7.70;5.10;;;;;;;11.79;100.00;101624.38;5233882;28;20028;-70
2021/10/15 00:57:58;;;;;;;14.85;5.47;;;;;;;11.76;100.00;101625.44;5234600;28;20029;-69
2021/10/15 01:00:30;;;;;;;8.75;4.88;;;;;;;11.72;100.00;101613.50;5236520;28;20470;-69
2021/10/15 01:03:05;;;;;;;7.77;4.10;;;;;;;11.76;100.00;101614.94;5236897;28;20039;-69
2021/10/15 01:05:36;;;;;;;6.97;4.78;;;;;;;11.68;100.00;101610.28;5236255;28;20463;-69
2021/10/15 01:08:07;;;;;;;8.35;4.82;;;;;;;11.72;100.00;101599.56;5232751;28;20055;-69
2021/10/15 01:10:39;;;;;;;9.27;4.97;;;;;;;11.69;100.00;101598.00;5234690;28;20048;-69
2021/10/15 01:13:11;;;;;;;8.00;5.03;;;;;;;11.65;100.00;101594.78;5232936;28;20024;-69
2021/10/15 01:15:42;;;;;;;7.88;4.75;;;;;;;11.67;100.00;101594.66;5233393;28;20380;-70
2021/10/15 01:18:14;;;;;;;8.85;4.35;;;;;;;11.65;100.00;101596.56;5235669;28;20033;-69
2021/10/15 01:20:48;;;;;;;7.35;4.80;;;;;;;11.68;100.00;101599.78;5235945;28;20358;-69
2021/10/15 01:23:19;;;;;;;8.13;4.95;;;;;;;11.63;100.00;101591.44;5234746;28;20029;-70
2021/10/15 01:25:53;;;;;;;7.20;5.07;;;;;;;11.62;100.00;101583.66;5235082;28;20030;-69
2021/10/15 01:28:26;;;;;;;8.85;4.70;;;;;;;11.63;100.00;101585.34;5235645;28;20623;-70
2021/10/15 01:30:58;;;;;;;11.13;4.60;;;;;;;11.57;100.00;101576.16;5233374;28;20029;-69
2021/10/15 01:33:30;;;;;;;6.35;4.72;;;;;;;11.64;100.00;101576.53;5236139;28;20030;-69
2021/10/15 01:36:02;;;;;;;7.25;4.70;;;;;;;11.62;100.00;101584.50;5235767;28;20205;-69
2021/10/15 01:38:33;;;;;;;8.95;5.25;;;;;;;11.63;100.00;101577.47;5235417;28;21178;-68
2021/10/15 01:41:04;;;;;;;9.07;4.70;;;;;;;11.63;100.00;101573.06;5232248;28;20026;-70
2021/10/15 01:43:36;;;;;;;10.48;4.93;;;;;;;11.65;100.00;101575.56;5233753;28;20040;-71
2021/10/15 01:46:07;;;;;;;9.07;5.07;;;;;;;11.65;100.00;101567.69;5236183;28;20537;-69
2021/10/15 01:48:38;;;;;;;7.75;4.18;;;;;;;11.64;100.00;101566.03;5233573;28;20112;-68
2021/10/15 01:51:09;;;;;;;10.52;4.80;;;;;;;11.64;100.00;101566.03;5234534;28;20025;-70
2021/10/15 01:53:41;;;;;;;12.35;5.63;;;;;;;11.63;100.00;101566.97;5233690;28;20514;-69
2021/10/15 01:56:15;;;;;;;10.68;5.05;;;;;;;11.65;100.00;101562.44;5233882;28;20308;-69
2021/10/15 01:58:47;;;;;;;8.88;4.95;;;;;;;11.62;100.00;101558.25;5235711;28;20032;-69
2021/10/15 02:01:18;;;;;;;8.23;4.53;;;;;;;11.60;100.00;101560.19;5232168;28;20116;-69
2021/10/15 02:03:49;;;;;;;9.52;4.68;;;;;;;11.63;100.00;101553.84;5234719;28;20037;-69
2021/10/15 02:06:21;;;;;;;6.70;4.70;;;;;;;11.62;100.00;101546.94;5231784;28;20720;-69
2021/10/15 02:08:52;;;;;;;7.03;4.45;;;;;;;11.62;100.00;101552.19;5232829;28;20368;-70
2021/10/15 02:11:23;;;;;;;8.27;4.63;;;;;;;11.64;100.00;101539.78;5234496;28;20049;-69
2021/10/15 02:13:54;;;;;;;9.85;5.22;;;;;;;11.62;100.00;101539.06;5234008;28;20033;-69
2021/10/15 02:16:26;;;;;;;8.13;4.95;;;;;;;11.63;100.00;101538.94;5233584;28;20072;-69
2021/10/15 02:18:57;;;;;;;8.30;4.93;;;;;;;11.65;100.00;101549.31;5234998;28;20481;-69
2021/10/15 02:21:28;;;;;;;9.55;5.13;;;;;;;11.62;100.00;101546.94;5232968;28;20589;-70
2021/10/15 02:23:59;;;;;;;9.07;4.95;;;;;;;11.63;100.00;101538.09;5232986;28;20025;-69
2021/10/15 02:26:31;;;;;;;9.15;5.10;;;;;;;11.65;100.00;101544.91;5234189;28;20483;-69
2021/10/15 02:29:03;;;;;;;10.02;5.60;;;;;;;11.62;100.00;101534.63;5235106;28;20902;-69
2021/10/15 02:31:34;;;;;;;10.40;5.43;;;;;;;11.63;100.00;101532.84;5233578;28;20033;-68
2021/10/15 02:34:05;;;;;;;9.27;5.20;;;;;;;11.64;100.00;101524.03;5233686;28;20100;-70
2021/10/15 02:36:37;;;;;;;10.80;5.60;;;;;;;11.64;100.00;101521.41;5234402;28;20043;-69
2021/10/15 02:39:08;;;;;;;9.95;5.38;;;;;;;11.66;100.00;101528.19;5234919;28;20036;-69
2021/10/15 02:41:40;;;;;;;10.13;5.30;;;;;;;11.65;100.00;101523.06;5231636;28;20032;-70
2021/10/15 02:44:12;;;;;;;8.93;5.50;;;;;;;11.67;100.00;101521.19;5235050;28;20486;-68
2021/10/15 02:46:44;;;;;;;8.50;5.18;;;;;;;11.67;100.00;101515.94;5233766;28;20029;-68
2021/10/15 02:49:16;;;;;;;9.50;5.40;;;;;;;11.66;100.00;101519.47;5234683;28;20028;-69
2021/10/15 02:51:47;;;;;;;8.43;5.35;;;;;;;11.64;100.00;101513.53;5232644;28;20455;-70
2021/10/15 02:54:18;;;;;;;8.43;5.20;;;;;;;11.66;100.00;101515.06;5234361;28;20033;-69
2021/10/15 02:56:50;;;;;;;8.65;5.00;;;;;;;11.66;100.00;101501.09;5234521;28;20395;-70
2021/10/15 02:59:21;;;;;;;9.55;5.30;;;;;;;11.67;100.00;101505.44;5233152;28;20044;-69
2021/10/15 03:01:52;;;;;;;10.27;5.30;;;;;;;11.67;100.00;101505.44;5231808;28;20025;-70
2021/10/15 03:04:23;;;;;;;9.38;5.10;;;;;;;11.66;100.00;101501.09;5234436;28;20025;-69
2021/10/15 03:06:55;;;;;;;7.68;5.80;;;;;;;11.69;100.00;101493.00;5234124;28;20032;-69
2021/10/15 03:09:26;;;;;;;8.25;5.28;;;;;;;11.67;100.00;101497.56;5232307;28;20028;-68
2021/10/15 03:11:57;;;;;;;13.93;5.28;;;;;;;11.65;100.00;101494.19;5230899;28;20029;-69
2021/10/15 03:14:29;;;;;;;9.05;5.20;;;;;;;11.65;100.00;101495.03;5233377;28;20394;-69
2021/10/15 03:17:00;;;;;;;9.00;5.22;;;;;;;11.65;100.00;101488.94;5233409;28;20537;-69
2021/10/15 03:19:31;;;;;;;9.85;5.78;;;;;;;11.64;100.00;101496.00;5233584;28;20410;-69
2021/10/15 03:22:03;;;;;;;8.98;5.40;;;;;;;11.61;100.00;101487.53;5232444;28;20023;-69
2021/10/15 03:24:34;;;;;;;10.40;5.40;;;;;;;11.62;100.00;101482.16;5232459;28;20260;-69
2021/10/15 03:27:05;;;;;;;7.78;5.20;;;;;;;11.64;100.00;101482.03;5234543;28;20116;-69
2021/10/15 03:29:37;;;;;;;10.73;5.50;;;;;;;11.64;100.00;101482.88;5231999;28;20025;-69
2021/10/15 03:32:08;;;;;;;9.07;5.70;;;;;;;11.64;100.00;101476.78;5226550;28;20033;-69
2021/10/15 03:34:39;;;;;;;9.50;6.10;;;;;;;11.64;100.00;101476.78;5232308;28;20025;-69
2021/10/15 03:37:11;;;;;;;14.25;5.95;;;;;;;11.64;100.00;101488.13;5234233;28;20021;-69
2021/10/15 03:39:42;;;;;;;8.48;6.00;;;;;;;11.65;100.00;101476.66;5231274;28;20490;-70
2021/10/15 03:42:13;;;;;;;13.82;5.78;;;;;;;11.66;100.00;101467.00;5233425;28;20022;-69
2021/10/15 03:44:45;;;;;;;8.90;5.95;;;;;;;11.66;100.00;101474.88;5232809;28;20029;-69
2021/10/15 03:47:16;;;;;;;9.10;6.13;;;;;;;11.65;100.00;101470.59;5233290;28;20116;-69
2021/10/15 03:49:47;;;;;;;10.23;6.20;;;;;;;11.67;100.00;101473.94;5231310;28;20021;-69
2021/10/15 03:52:19;;;;;;;12.40;6.18;;;;;;;11.67;100.00;101468.69;5233826;28;20032;-69
2021/10/15 03:54:50;;;;;;;9.98;6.00;;;;;;;11.72;100.00;101474.38;5232598;28;20511;-69
2021/10/15 03:57:21;;;;;;;9.07;6.25;;;;;;;11.72;100.00;101456.00;5232574;28;20403;-69
2021/10/15 03:59:52;;;;;;;8.75;5.97;;;;;;;11.68;100.00;101454.59;5232778;28;20436;-69
2021/10/15 04:02:24;;;;;;;9.95;6.22;;;;;;;11.67;100.00;101453.75;5229372;28;20033;-69
2021/10/15 04:04:55;;;;;;;9.18;6.28;;;;;;;11.69;100.00;101449.22;5231792;28;20021;-69
2021/10/15 04:07:26;;;;;;;9.02;5.78;;;;;;;11.68;100.00;101444.94;5229792;28;20029;-69
2021/10/15 04:09:58;;;;;;;11.40;5.97;;;;;;;11.66;100.00;101443.38;5231567;28;20111;-69
2021/10/15 04:12:29;;;;;;;9.10;5.88;;;;;;;11.68;100.00;101444.94;5233419;28;20021;-69
2021/10/15 04:15:01;;;;;;;11.65;6.70;;;;;;;11.67;100.00;101443.25;5231661;28;20034;-69
2021/10/15 04:17:32;;;;;;;9.63;5.78;;;;;;;11.66;100.00;101446.00;5232212;28;20545;-69
2021/10/15 04:20:06;;;;;;;9.93;6.45;;;;;;;11.71;100.00;101449.09;5233746;28;20021;-68
2021/10/15 04:22:38;;;;;;;11.48;6.57;;;;;;;11.69;100.00;101427.38;5231836;28;20072;-69
2021/10/15 04:25:10;;;;;;;10.88;5.97;;;;;;;11.72;100.00;101429.75;5231037;28;20435;-70
2021/10/15 04:27:41;;;;;;;9.63;6.20;;;;;;;11.74;100.00;101424.38;5233610;28;20053;-70
2021/10/15 04:30:12;;;;;;;8.55;6.20;;;;;;;11.73;100.00;101415.69;5234454;28;20049;-69
2021/10/15 04:32:44;;;;;;;9.38;6.35;;;;;;;11.76;100.00;101423.31;5235145;28;20024;-70
2021/10/15 04:35:15;;;;;;;9.55;6.15;;;;;;;11.77;100.00;101419.72;5236931;28;20071;-69
2021/10/15 04:37:46;;;;;;;11.27;7.13;;;;;;;11.78;100.00;101426.66;5234786;28;20033;-69
2021/10/15 04:40:17;;;;;;;10.25;6.22;;;;;;;11.77;100.00;101430.22;5236703;28;20025;-69
2021/10/15 04:42:49;;;;;;;10.75;6.30;;;;;;;11.77;100.00;101424.97;5236171;28;20041;-69
2021/10/15 04:45:20;;;;;;;10.98;6.50;;;;;;;11.79;100.00;101417.00;5237014;28;20033;-69
2021/10/15 04:47:51;;;;;;;9.65;6.53;;;;;;;11.78;100.00;101416.16;5234867;28;20169;-69
2021/10/15 04:50:23;;;;;;;9.60;6.93;;;;;;;11.82;100.00;101411.47;5236282;28;20029;-70
2021/10/15 04:52:54;;;;;;;10.30;6.43;;;;;;;11.81;100.00;101405.38;5236758;28;20025;-69
2021/10/15 04:55:25;;;;;;;11.40;6.72;;;;;;;11.84;100.00;101412.22;5234515;28;20013;-70
2021/10/15 04:57:57;;;;;;;10.05;6.65;;;;;;;11.82;100.00;101408.84;5234333;28;20036;-69
2021/10/15 05:00:31;;;;;;;9.00;6.38;;;;;;;11.84;100.00;101413.06;5235742;28;20021;-71
2021/10/15 05:03:02;;;;;;;11.98;6.60;;;;;;;11.82;100.00;101411.47;5234319;28;20030;-69
2021/10/15 05:05:34;;;;;;;11.00;6.70;;;;;;;11.84;100.00;101412.22;5236649;28;20017;-70
2021/10/15 05:08:05;;;;;;;8.73;6.80;;;;;;;11.85;100.00;101427.00;5234971;28;20025;-70
2021/10/15 05:10:41;;;;;;;12.45;6.85;;;;;;;11.87;100.00;101415.44;5235677;28;20045;-68
2021/10/15 05:13:14;;;;;;;10.63;6.30;;;;;;;11.85;100.00;101417.34;5235361;28;20025;-69
2021/10/15 05:15:46;;;;;;;11.57;7.13;;;;;;;11.85;100.00;101414.72;5236992;28;20418;-69
2021/10/15 05:18:17;;;;;;;13.90;6.28;;;;;;;11.87;100.00;101410.19;5234033;28;20786;-69
2021/10/15 05:20:49;;;;;;;8.52;6.20;;;;;;;11.87;100.00;101415.44;5235260;28;20025;-69
2021/10/15 05:23:20;;;;;;;8.32;6.13;;;;;;;11.87;100.00;101404.94;5234351;28;20061;-70
2021/10/15 05:25:51;;;;;;;8.45;6.20;;;;;;;11.89;100.00;101402.16;5235431;28;20021;-68
2021/10/15 05:28:23;;;;;;;10.80;6.95;;;;;;;11.90;100.00;101412.56;5233769;28;20029;-70
2021/10/15 05:30:54;;;;;;;10.73;6.97;;;;;;;11.90;100.00;101403.84;5233261;28;20044;-70
2021/10/15 05:33:25;;;;;;;11.70;6.72;;;;;;;11.90;100.00;101417.81;5232313;28;20506;-69
2021/10/15 05:35:57;;;;;;;10.77;6.88;;;;;;;11.91;100.00;101411.59;5232723;28;20040;-69
2021/10/15 05:38:28;;;;;;;8.38;6.32;;;;;;;11.91;100.00;101416.84;5233901;28;20033;-69
2021/10/15 05:40:59;;;;;;;11.45;6.95;;;;;;;11.91;100.00;101411.59;5234365;28;20116;-69
2021/10/15 05:43:30;;;;;;;11.38;7.25;;;;;;;11.96;100.00;101408.59;5234090;28;20025;-69
2021/10/15 05:46:02;;;;;;;9.93;7.03;;;;;;;11.96;100.00;101410.38;5235490;28;20029;-69
2021/10/15 05:48:33;;;;;;;13.30;7.45;;;;;;;11.97;100.00;101417.28;5232754;28;20029;-70
2021/10/15 05:51:05;;;;;;;9.82;6.93;;;;;;;11.94;100.00;101415.78;5233714;28;20040;-70
2021/10/15 05:53:36;;;;;;;11.38;7.25;;;;;;;11.98;100.00;101422.44;5234911;28;20438;-70
2021/10/15 05:59:03;;;;;;;8.63;6.82;;;;;;;12.00;100.00;101422.31;5225831;28;20029;-72
2021/10/15 06:01:35;;;;;;;9.02;6.88;;;;;;;12.00;100.00;101411.81;5233656;28;20207;-69
2021/10/15 06:14:58;;;;;;;9.30;7.50;;;;;;;12.07;100.00;101416.44;5234948;28;20037;-69
2021/10/15 06:17:29;;;;;;;10.68;7.50;;;;;;;12.10;100.00;101410.09;5234415;28;20479;-69
2021/10/15 06:20:01;;;;;;;14.18;8.32;;;;;;;12.10;100.00;101410.09;5233379;28;20471;-70
2021/10/15 06:22:33;;;;;;;12.98;8.40;;;;;;;12.12;100.00;101402.91;5232251;28;20116;-70
2021/10/15 06:25:04;;;;;;;11.48;8.73;;;;;;;12.14;100.00;101409.72;5234164;28;20112;-69
2021/10/15 06:27:36;;;;;;;13.88;9.55;;;;;;;12.13;100.00;101408.06;5234538;28;20025;-68
2021/10/15 06:30:08;;;;;;;10.90;7.85;;;;;;;12.17;100.00;101419.97;5232840;28;20071;-68
2021/10/15 06:32:39;;;;;;;12.85;9.07;;;;;;;12.20;100.00;101415.41;5227048;28;20045;-69
2021/10/15 06:35:10;;;;;;;12.23;9.13;;;;;;;12.23;100.00;101408.09;5230283;28;20040;-69
2021/10/15 06:37:41;;;;;;;11.73;9.35;;;;;;;12.22;100.00;101411.69;5231322;28;20048;-68
2021/10/15 06:40:13;;;;;;;14.18;9.13;;;;;;;12.24;100.00;101412.44;5231945;28;20051;-68
2021/10/15 06:42:45;;;;;;;12.27;9.32;;;;;;;12.26;100.00;101418.38;5209531;28;20041;-69
2021/10/15 06:45:17;;;;;;;15.55;9.52;;;;;;;12.28;100.00;101419.09;5223097;28;20104;-69
2021/10/15 06:47:48;;;;;;;12.40;10.23;;;;;;;12.32;100.00;101432.81;5228814;28;20083;-69
2021/10/15 06:50:19;;;;;;;15.48;10.13;;;;;;;12.33;100.00;101423.97;5216809;28;20045;-69
2021/10/15 06:52:51;;;;;;;13.43;9.85;;;;;;;12.34;100.00;101420.38;5224180;28;20133;-69
2021/10/15 06:55:24;;;;;;;15.43;10.07;;;;;;;12.35;100.00;101429.91;5222850;28;20036;-69
2021/10/15 06:57:55;;;;;;;16.42;10.63;;;;;;;12.36;100.00;101426.34;5222571;28;20269;-68
2021/10/15 07:00:26;;;;;;;12.75;10.13;;;;;;;12.41;100.00;101430.22;5228206;28;20029;-69
2021/10/15 07:02:58;;;;;;;15.45;10.27;;;;;;;12.45;100.00;101429.97;5215523;28;20025;-68
2021/10/15 07:05:29;;;;;;;13.77;10.45;;;;;;;12.45;100.00;101427.34;5224779;28;20422;-69
2021/10/15 07:08:00;;;;;;;14.98;11.40;;;;;;;12.49;100.00;101441.91;5224969;28;20021;-69
2021/10/15 07:10:32;;;;;;;15.23;10.88;;;;;;;12.54;100.00;101434.47;5228402;28;20057;-69
2021/10/15 07:13:03;;;;;;;14.48;11.00;;;;;;;12.56;100.00;101433.38;5223672;28;20033;-68
2021/10/15 07:15:34;;;;;;;18.52;10.98;;;;;;;12.59;100.00;101435.75;5230150;28;20028;-69
2021/10/15 07:18:06;;;;;;;13.75;10.95;;;;;;;12.61;100.00;101439.09;5228373;28;20028;-69
2021/10/15 07:20:38;;;;;;;13.87;10.60;;;;;;;12.63;100.00;101444.22;5225990;28;20457;-69
2021/10/15 07:23:11;;;;;;;13.57;10.20;;;;;;;12.66;100.00;101444.81;5225337;28;20062;-69
2021/10/15 07:25:43;;;;;;;18.20;11.23;;;;;;;12.69;100.00;101443.72;5224944;28;20025;-69
2021/10/15 07:28:15;;;;;;;14.73;10.75;;;;;;;12.70;100.00;101452.44;5227384;28;20071;-69
2021/10/15 07:30:46;;;;;;;16.23;10.90;;;;;;;12.70;100.00;101448.00;5225293;28;20026;-69
2021/10/15 07:33:17;;;;;;;15.18;10.60;;;;;;;12.69;100.00;101446.34;5228658;28;20456;-69
2021/10/15 07:35:49;;;;;;;15.80;10.63;;;;;;;12.70;100.00;101455.91;5229892;28;20021;-69
2021/10/15 07:38:21;;;;;;;14.88;10.88;;;;;;;12.65;100.00;101463.31;5220178;28;20018;-68
2021/10/15 07:40:53;;;;;;;15.32;12.00;;;;;;;12.63;100.00;101462.63;5231501;28;20025;-68
2021/10/15 07:43:24;;;;;;;17.75;11.75;;;;;;;12.62;100.00;101464.41;5231846;28;20086;-68
2021/10/15 07:45:55;;;;;;;15.60;11.95;;;;;;;12.60;100.00;101474.22;5231288;28;20079;-70
2021/10/15 07:48:27;;;;;;;19.65;13.32;;;;;;;12.55;100.00;101472.94;5228658;28;20148;-68
2021/10/15 07:50:58;;;;;;;15.27;12.18;;;;;;;12.58;100.00;101483.22;5229366;28;20112;-70
2021/10/15 07:53:30;;;;;;;17.50;13.00;;;;;;;12.51;100.00;101485.50;5235422;28;20062;-70
2021/10/15 07:56:01;;;;;;;16.98;13.20;;;;;;;12.58;100.00;101506.88;5234270;28;20029;-68
2021/10/15 07:58:32;;;;;;;22.42;13.18;;;;;;;12.54;100.00;101537.81;5235936;28;20458;-70
2021/10/15 08:01:04;;;;;;;24.50;14.90;;;;;;;12.50;100.00;101535.56;5234599;28;20021;-69
2021/10/15 08:03:35;;;;;;;13.23;11.55;;;;;;;12.55;100.00;101534.22;5219727;28;20034;-70
2021/10/15 08:06:07;;;;;;;10.70;9.57;;;;;;;12.54;100.00;101550.09;5240784;28;20021;-70
2021/10/15 08:08:38;;;;;;;8.48;6.65;;;;;;;12.57;100.00;101552.50;5232720;28;20240;-70
2021/10/15 08:11:11;;;;;;;7.65;5.78;;;;;;;12.57;100.00;101560.38;5237156;28;21020;-70
2021/10/15 08:13:42;;;;;;;6.70;5.47;;;;;;;12.60;100.00;101555.72;5236187;28;20468;-70
2021/10/15 08:16:13;;;;;;;6.05;5.38;;;;;;;12.58;100.00;101559.44;5232927;28;20080;-68
2021/10/15 08:18:46;;;;;;;7.82;5.57;;;;;;;12.59;100.00;101551.41;5235693;28;20039;-70
2021/10/15 08:21:19;;;;;;;9.40;6.30;;;;;;;12.63;100.00;101563.34;5231950;28;20344;-70
2021/10/15 08:23:51;;;;;;;8.07;7.10;;;;;;;12.60;100.00;101565.38;5233217;28;20030;-70
2021/10/15 08:26:22;;;;;;;7.03;6.32;;;;;;;12.66;100.00;101580.66;5234626;28;20080;-70
2021/10/15 08:28:59;;;;;;;5.85;5.22;;;;;;;12.65;100.00;101592.13;5237222;28;20021;-70
2021/10/15 08:31:30;;;;;;;5.85;1.83;;;;;;;12.47;100.00;101594.47;5233428;28;20029;-70
2021/10/15 08:34:07;;;;;;;3.67;0.88;;;;;;;12.32;100.00;101614.94;5233849;28;20033;-70
2021/10/15 08:36:38;;;;;;;2.20;0.80;;;;;;;12.26;100.00;101607.53;5228287;28;20057;-70
2021/10/15 08:39:11;;;;;;;3.60;0.95;;;;;;;12.19;100.00;101606.34;5239232;28;20625;-70
2021/10/15 08:41:42;;;;;;;2.33;0.70;;;;;;;12.24;100.00;101616.50;5230118;28;20025;-70
2021/10/15 08:44:14;;;;;;;6.18;0.90;;;;;;;12.15;100.00;101626.75;5231962;28;20310;-70
2021/10/15 08:46:46;;;;;;;3.65;1.13;;;;;;;12.13;100.00;101625.25;5233098;28;20056;-70
2021/10/15 08:49:17;;;;;;;2.65;0.70;;;;;;;12.11;100.00;101633.22;5236033;28;20033;-70
2021/10/15 08:51:49;;;;;;;2.08;0.68;;;;;;;12.11;100.00;101637.63;5233668;28;20033;-70
2021/10/15 08:54:20;;;;;;;5.95;1.15;;;;;;;12.17;100.00;101631.91;5220168;28;20021;-70
2021/10/15 08:56:52;;;;;;;3.95;0.90;;;;;;;12.17;100.00;101643.25;5229098;28;20071;-70
2021/10/15 08:59:45;;;;;;;2.45;0.82;;;;;;;12.35;100.00;101640.97;5232827;28;20021;-70
2021/10/15 09:02:21;;;;;;;4.22;0.77;;;;;;;12.27;100.00;101647.78;5236850;28;20021;-70
2021/10/15 09:04:55;;;;;;;2.88;0.63;;;;;;;12.26;100.00;101648.75;5234965;28;20590;-70
2021/10/15 09:07:27;;;;;;;6.82;1.35;;;;;;;12.24;100.00;101653.28;5224715;28;20459;-70
2021/10/15 09:10:19;;;;;;;3.22;0.70;;;;;;;12.44;100.00;101649.06;5222475;28;20029;-70
2021/10/15 09:12:56;;;;;;;4.40;1.08;;;;;;;12.44;100.00;101657.78;5214380;28;20029;-69
2021/10/15 09:15:35;;;;;;;6.13;1.17;;;;;;;12.52;100.00;101663.25;5226127;28;20113;-69
2021/10/15 09:18:15;;;;;;;4.65;1.10;;;;;;;12.57;100.00;101670.78;5231450;28;20025;-70
2021/10/15 09:20:48;;;;;;;4.20;1.10;;;;;;;12.56;100.00;101674.38;5224601;28;20560;-70
2021/10/15 09:23:42;;;;;;;3.08;0.98;;;;;;;12.74;100.00;101677.31;5232133;28;20491;-70
2021/10/15 09:26:16;;;;;;;3.25;1.08;;;;;;;12.61;100.00;101686.22;5229808;28;20044;-70
2021/10/15 09:28:48;;;;;;;5.07;1.10;;;;;;;12.61;100.00;101674.81;5219671;28;20131;-69
2021/10/15 09:31:19;;;;;;;4.75;1.35;;;;;;;12.65;100.00;101682.38;5215914;28;20090;-69
2021/10/15 09:33:56;;;;;;;5.80;0.82;;;;;;;12.71;100.00;101683.66;5223463;28;20037;-69
2021/10/15 09:36:28;;;;;;;4.25;1.23;;;;;;;12.68;100.00;101686.53;5231083;28;20053;-69
2021/10/15 09:39:30;;;;;;;4.57;0.95;;;;;;;12.95;100.00;101701.03;5222097;28;20065;-70
2021/10/15 09:42:01;;;;;;;5.43;1.20;;;;;;;12.72;100.00;101693.22;5224867;28;20037;-69
2021/10/15 09:44:34;;;;;;;3.83;1.05;;;;;;;12.75;100.00;101705.28;5227583;28;20033;-69
2021/10/15 09:47:21;;;;;;;3.47;0.95;;;;;;;12.95;100.00;101708.94;5221806;28;20390;-70
2021/10/15 09:50:03;;;;;;;3.85;1.17;;;;;;;13.00;100.00;101714.66;5229775;28;20120;-70
2021/10/15 09:52:35;;;;;;;2.83;0.82;;;;;;;12.86;100.00;101719.22;5232485;28;20230;-69
2021/10/15 09:55:10;;;;;;;3.95;1.08;;;;;;;13.02;100.00;101723.25;5234194;28;20096;-70
2021/10/15 09:57:44;;;;;;;6.07;1.20;;;;;;;13.00;100.00;101712.03;5229839;28;20033;-69
2021/10/15 10:00:31;;;;;;;5.75;1.77;;;;;;;13.12;100.00;101708.41;5221778;28;20029;-69
2021/10/15 10:03:03;;;;;;;4.97;0.98;;;;;;;13.04;100.00;101724.81;5223066;28;20052;-69
2021/10/15 10:05:35;;;;;;;6.57;1.20;;;;;;;12.98;100.00;101719.19;5226280;28;20120;-69
2021/10/15 10:08:07;;;;;;;6.13;1.17;;;;;;;12.94;100.00;101726.50;5231641;28;20496;-69
2021/10/15 10:10:40;;;;;;;7.35;1.60;;;;;;;12.94;100.00;101720.41;5233502;28;20111;-69
2021/10/15 10:13:14;;;;;;;5.85;1.30;;;;;;;12.99;100.00;101726.13;5222786;28;20040;-69
2021/10/15 10:15:46;;;;;;;4.03;1.15;;;;;;;13.00;100.00;101730.44;5228004;28;20225;-70
2021/10/15 10:18:20;;;;;;;5.75;1.38;;;;;;;13.05;100.00;101730.91;5225168;28;20049;-68
2021/10/15 10:21:04;;;;;;;5.78;1.35;;;;;;;13.08;100.00;101733.28;5232190;28;20068;-70
2021/10/15 10:23:40;;;;;;;6.50;1.50;;;;;;;13.14;100.00;101743.31;5233240;28;20029;-69
2021/10/15 10:26:16;;;;;;;5.53;1.40;;;;;;;13.13;100.00;101734.56;5234168;28;20402;-70
2021/10/15 10:29:03;;;;;;;5.18;1.30;;;;;;;13.27;100.00;101744.00;5233463;28;20028;-70
2021/10/15 10:31:34;;;;;;;5.97;1.40;;;;;;;13.15;100.00;101740.56;5231090;28;20029;-69
2021/10/15 10:34:09;;;;;;;4.85;1.60;;;;;;;13.24;100.00;101741.63;5233427;28;20033;-69
2021/10/15 10:36:41;;;;;;;6.47;1.70;;;;;;;13.34;100.00;101736.47;5231689;28;20053;-70
2021/10/15 10:39:21;;;;;;;8.47;1.60;;;;;;;13.39;100.00;101742.16;5232093;28;20033;-69
2021/10/15 10:42:05;;;;;;;5.88;1.98;;;;;;;13.42;100.00;101749.00;5233395;28;20330;-69
2021/10/15 10:45:00;;;;;;;5.97;1.80;;;;;;;13.51;100.00;101750.84;5233663;28;20030;-70
2021/10/15 10:47:31;;;;;;;6.70;1.50;;;;;;;13.37;100.00;101747.56;5222861;28;20046;-69
2021/10/15 10:50:03;;;;;;;10.50;2.08;;;;;;;13.54;100.00;101750.59;5232785;28;20032;-69
2021/10/15 10:52:39;;;;;;;5.50;1.70;;;;;;;13.62;100.00;101756.06;5232903;28;20029;-70
2021/10/15 10:55:35;;;;;;;7.20;1.58;;;;;;;13.84;100.00;101755.09;5233337;28;20095;-70
2021/10/15 10:58:28;;;;;;;7.68;1.90;;;;;;;14.00;100.00;101762.53;5202696;28;20033;-69
2021/10/15 11:01:25;;;;;;;9.00;1.30;;;;;;;14.07;100.00;101758.44;5218313;28;20037;-70
2021/10/15 11:03:58;;;;;;;7.88;1.90;;;;;;;13.94;100.00;101763.91;5226602;28;20124;-69
2021/10/15 11:06:58;;;;;;;7.40;2.13;;;;;;;14.28;100.00;101766.28;5224393;28;20124;-71
2021/10/15 11:09:31;;;;;;;6.25;1.63;;;;;;;14.17;100.00;101758.47;5217661;28;20039;-69
2021/10/15 11:12:02;;;;;;;;;;;;;;;14.61;100.00;101754.66;5230795;28;20128;-69
2021/10/15 11:14:58;;;;;;;8.05;1.63;;;;;;;14.56;100.00;101748.97;5225504;28;19928;-70
2021/10/15 11:17:37;;;;;;;9.63;1.65;;;;;;;14.61;100.00;101754.66;5229973;28;20123;-69
2021/10/15 11:20:27;;;;;;;6.63;1.50;;;;;;;14.75;100.00;101764.84;5229988;28;20053;-70
2021/10/15 11:23:05;;;;;;;7.07;1.75;;;;;;;14.75;100.00;101764.84;5232617;28;20064;-69
2021/10/15 11:25:41;;;;;;;6.28;1.50;;;;;;;14.73;100.00;101766.75;5230559;28;20025;-69
2021/10/15 11:28:18;;;;;;;7.95;1.70;;;;;;;14.54;100.00;101771.97;5229530;28;20475;-69
2021/10/15 11:30:52;;;;;;;6.50;1.50;;;;;;;14.44;100.00;101771.09;5227835;28;20045;-69
2021/10/15 11:33:26;;;;;;;5.53;1.60;;;;;;;14.36;100.00;101769.97;5228375;28;20037;-69
2021/10/15 11:35:57;;;;;;;7.57;1.75;;;;;;;14.54;100.00;101777.25;5231179;28;20528;-69
2021/10/15 11:38:29;;;;;;;6.40;1.52;;;;;;;14.67;100.00;101767.31;5226542;28;20033;-70
2021/10/15 11:41:06;;;;;;;3.67;1.52;;;;;;;14.74;100.00;101765.00;5230744;28;20032;-69
2021/10/15 11:43:41;;;;;;;5.72;1.20;;;;;;;14.90;100.00;101770.56;5228804;28;20025;-69
2021/10/15 11:46:15;;;;;;;5.20;1.55;;;;;;;14.78;100.00;101771.66;5221503;28;20554;-69
2021/10/15 11:48:51;;;;;;;7.60;1.42;;;;;;;14.74;100.00;101778.19;5230929;28;20030;-69
2021/10/15 11:51:26;;;;;;;5.70;1.10;;;;;;;14.81;100.00;101777.50;5231644;28;20033;-70
2021/10/15 11:54:02;;;;;;;8.45;1.30;;;;;;;15.09;100.00;101781.16;5216598;28;20517;-70
2021/10/15 11:56:34;;;;;;;7.80;1.52;;;;;;;15.05;100.00;101777.13;5228046;28;20022;-70